Weather at Friedman Memorial Airport

Public forecast

Using degrees Fahrenheit for public forecast. Weather courtesy of forecast.io.

Current aviation weather report (METAR) for Friedman Memorial Airport

Retrieved 2020/10/31 03:55 UTC (50 minutes ago):

KSUN 310355Z 29003KT 10SM SKC 13/M04 A3000

Aviation forecast (TAF) for Friedman Memorial Airport

Retrieved 2020-10-31 00:22 UTC (4 hours ago):

TAF KSUN 302320Z 3100/0106 21013G23KT P6SM FEW050 BKN250 FM310200 31011KT P6SM SKC WS020/31035KT FM310900 31010KT P6SM SKC FM311800 12007KT P6SM SKC FM010300 31009KT P6SM SKC AMD LTD TO CLD VIS AND WIND 3106/3114